createdAt,value
2023-02-24T00:01:28.564Z,98543.66
2023-02-24T00:03:57.422Z,98544.88
2023-02-24T00:06:26.388Z,98534.94
2023-02-24T00:08:53.762Z,98537.22
2023-02-24T00:11:20.665Z,98537.22
2023-02-24T00:13:47.621Z,98538.63
2023-02-24T00:16:19.777Z,98539.72
2023-02-24T00:18:46.613Z,98541.25
2023-02-24T00:21:16.270Z,98541.50
2023-02-24T00:23:46.471Z,98538.88
2023-02-24T00:26:15.497Z,98529.53
2023-02-24T00:28:43.041Z,98529.72
2023-02-24T00:31:16.050Z,98530.34
2023-02-24T00:33:44.920Z,98532.66
2023-02-24T00:36:25.997Z,98526.53
2023-02-24T00:39:11.295Z,98524.97
2023-02-24T00:41:41.500Z,98518.25
2023-02-24T00:44:11.196Z,98512.03
2023-02-24T00:46:40.497Z,98508.22
2023-02-24T00:49:12.748Z,98496.94
2023-02-24T00:51:41.669Z,98495.75
2023-02-24T00:54:10.369Z,98496.00
2023-02-24T00:56:37.163Z,98488.66
2023-02-24T00:59:04.135Z,98486.66
2023-02-24T01:01:32.880Z,98488.06
2023-02-24T01:04:06.281Z,98493.13
2023-02-24T01:06:34.289Z,98483.03
2023-02-24T01:09:01.559Z,98479.19
2023-02-24T01:11:52.588Z,98475.34
2023-02-24T01:14:22.917Z,98473.91
2023-02-24T01:16:50.750Z,98469.59
2023-02-24T01:19:22.869Z,98472.22
2023-02-24T01:21:55.298Z,98464.09
2023-02-24T01:24:23.886Z,98467.66
2023-02-24T01:26:50.806Z,98463.31
2023-02-24T01:29:17.753Z,98463.09
2023-02-24T01:31:44.661Z,98453.88
2023-02-24T01:34:13.070Z,98440.38
2023-02-24T01:36:43.445Z,98441.69
2023-02-24T01:39:12.602Z,98434.44
2023-02-24T01:41:45.302Z,98441.81
2023-02-24T01:44:15.833Z,98438.22
2023-02-24T01:46:48.432Z,98427.00
2023-02-24T01:49:21.126Z,98429.09
2023-02-24T01:51:50.926Z,98424.34
2023-02-24T01:54:23.241Z,98423.53
2023-02-24T01:56:52.046Z,98426.16
2023-02-24T01:59:21.605Z,98421.84
2023-02-24T02:01:53.308Z,98418.88
2023-02-24T02:04:35.421Z,98425.53
2023-02-24T02:07:02.620Z,98418.75
2023-02-24T02:09:29.860Z,98415.38
2023-02-24T02:11:56.484Z,98419.66
2023-02-24T02:14:27.184Z,98413.88
2023-02-24T02:17:32.828Z,98412.47
2023-02-24T02:20:15.695Z,98416.13
2023-02-24T02:22:54.354Z,98409.66
2023-02-24T02:25:36.087Z,98402.13
2023-02-24T02:28:08.724Z,98395.19
2023-02-24T02:30:57.207Z,98393.28
2023-02-24T02:33:42.676Z,98387.19
2023-02-24T02:36:33.053Z,98380.72
2023-02-24T02:39:22.819Z,98381.91
2023-02-24T02:42:01.595Z,98381.75
2023-02-24T02:44:41.844Z,98378.28
2023-02-24T02:47:09.045Z,98373.38
2023-02-24T02:49:40.213Z,98372.31
2023-02-24T02:52:13.845Z,98365.38
2023-02-24T02:54:49.978Z,98368.69
2023-02-24T02:57:30.008Z,98359.84
2023-02-24T03:00:15.051Z,98356.53
2023-02-24T03:02:46.874Z,98361.06
2023-02-24T03:05:20.338Z,98350.41
2023-02-24T03:07:53.540Z,98351.00
2023-02-24T03:10:27.845Z,98352.09
2023-02-24T03:13:06.263Z,98338.22
2023-02-24T03:15:33.716Z,98343.59
2023-02-24T03:18:13.645Z,98342.53
2023-02-24T03:28:42.741Z,98329.47
2023-02-24T03:31:49.176Z,98324.78
2023-02-24T03:34:24.032Z,98323.94
2023-02-24T03:36:50.796Z,98325.88
2023-02-24T03:39:18.103Z,98320.94
2023-02-24T03:42:01.244Z,98324.78
2023-02-24T03:44:28.984Z,98314.16
2023-02-24T03:46:56.128Z,98319.41
2023-02-24T03:49:25.513Z,98308.91
2023-02-24T03:52:00.764Z,98308.41
2023-02-24T03:54:31.027Z,98311.59
2023-02-24T03:57:14.326Z,98308.88
2023-02-24T04:00:22.752Z,98308.88
2023-02-24T04:03:09.654Z,98311.81
2023-02-24T04:05:47.620Z,98307.19
2023-02-24T04:08:17.317Z,98298.34
2023-02-24T04:10:57.469Z,98295.72
2023-02-24T04:13:49.825Z,98296.41
2023-02-24T04:16:29.002Z,98297.47
2023-02-24T04:19:08.267Z,98293.75
2023-02-24T04:21:37.110Z,98286.34
2023-02-24T04:24:11.559Z,98286.06
2023-02-24T04:26:42.901Z,98298.94
2023-02-24T04:29:17.656Z,98284.97
2023-02-24T04:31:48.417Z,98273.91
2023-02-24T04:34:20.218Z,98281.78
2023-02-24T04:36:50.333Z,98266.97
2023-02-24T04:39:19.165Z,98274.50
2023-02-24T04:41:51.027Z,98266.03
2023-02-24T04:44:19.739Z,98268.28
2023-02-24T04:46:47.679Z,98267.19
2023-02-24T04:49:14.273Z,98261.94
2023-02-24T04:51:43.836Z,98263.88
2023-02-24T04:54:17.643Z,98254.50
2023-02-24T04:56:50.899Z,98248.31
2023-02-24T04:59:22.379Z,98244.25
2023-02-24T05:01:51.728Z,98248.28
2023-02-24T05:04:18.578Z,98240.63
2023-02-24T05:06:46.288Z,98241.78
2023-02-24T05:09:14.932Z,98238.47
2023-02-24T05:11:43.699Z,98238.84
2023-02-24T05:14:16.259Z,98238.16
2023-02-24T05:16:44.077Z,98235.00
2023-02-24T05:19:30.922Z,98242.03
2023-02-24T05:22:00.370Z,98237.13
2023-02-24T05:24:29.110Z,98249.56
2023-02-24T05:27:00.209Z,98244.59
2023-02-24T05:29:35.742Z,98237.81
2023-02-24T05:32:04.497Z,98234.91
2023-02-24T05:34:33.204Z,98234.06
2023-02-24T05:37:01.884Z,98231.31
2023-02-24T05:39:28.768Z,98227.75
2023-02-24T05:41:57.542Z,98231.72
2023-02-24T05:44:26.471Z,98236.88
2023-02-24T05:46:58.826Z,98237.72
2023-02-24T05:49:34.042Z,98235.22
2023-02-24T05:52:10.249Z,98233.91
2023-02-24T05:54:39.699Z,98233.91
2023-02-24T05:57:08.997Z,98232.31
2023-02-24T05:59:36.134Z,98239.13
2023-02-24T06:02:07.402Z,98231.81
2023-02-24T06:04:46.595Z,98228.34
2023-02-24T06:07:19.336Z,98230.03
2023-02-24T06:09:50.168Z,98224.34
2023-02-24T06:12:18.264Z,98222.41
2023-02-24T06:14:48.066Z,98221.72
2023-02-24T06:17:18.682Z,98221.91
2023-02-24T06:19:46.999Z,98223.81
2023-02-24T06:22:15.417Z,98223.44
2023-02-24T06:24:44.481Z,98220.91
2023-02-24T06:27:17.681Z,98227.94
2023-02-24T06:29:52.433Z,98230.16
2023-02-24T06:32:21.771Z,98228.47
2023-02-24T06:34:48.339Z,98225.13
2023-02-24T06:37:16.343Z,98228.91
2023-02-24T06:39:43.469Z,98225.34
2023-02-24T06:42:11.971Z,98227.25
2023-02-24T06:44:40.721Z,98218.84
2023-02-24T06:47:10.739Z,98224.34
2023-02-24T06:49:37.625Z,98218.44
2023-02-24T06:52:05.957Z,98218.69
2023-02-24T06:54:36.014Z,98203.13
2023-02-24T06:57:04.523Z,98210.88
2023-02-24T06:59:32.301Z,98210.03
2023-02-24T07:02:01.982Z,98208.59
2023-02-24T07:04:29.247Z,98210.47
2023-02-24T07:07:03.660Z,98207.63
2023-02-24T07:09:31.140Z,98212.59
2023-02-24T07:11:58.803Z,98214.47
2023-02-24T07:14:27.769Z,98202.81
2023-02-24T07:16:55.122Z,98202.97
2023-02-24T07:19:25.729Z,98206.84
2023-02-24T07:22:00.028Z,98202.03
2023-02-24T07:24:36.629Z,98200.19
2023-02-24T07:27:09.451Z,98190.38
2023-02-24T07:29:37.941Z,98179.19
2023-02-24T07:32:08.759Z,98179.50
2023-02-24T07:34:40.277Z,98174.34
2023-02-24T07:37:08.700Z,98176.94
2023-02-24T07:39:39.649Z,98168.84
2023-02-24T07:42:08.284Z,98166.97
2023-02-24T07:44:34.950Z,98166.56
2023-02-24T07:47:07.836Z,98162.38
2023-02-24T07:49:35.134Z,98162.13
2023-02-24T07:52:02.046Z,98156.06
2023-02-24T07:54:30.346Z,98154.25
2023-02-24T07:56:59.288Z,98146.50
2023-02-24T07:59:27.833Z,98146.16
2023-02-24T08:01:55.943Z,98138.50
2023-02-24T08:04:28.658Z,98142.94
2023-02-24T08:06:56.192Z,98136.28
2023-02-24T08:09:46.572Z,98134.44
2023-02-24T08:12:21.601Z,98136.91
2023-02-24T08:14:53.489Z,98130.63
2023-02-24T08:17:26.456Z,98129.97
2023-02-24T08:20:21.525Z,98116.63
2023-02-24T08:22:53.652Z,98116.88
2023-02-24T08:25:35.979Z,98118.25
2023-02-24T08:28:09.167Z,98117.78
2023-02-24T08:30:39.399Z,98114.97
2023-02-24T08:33:09.334Z,98111.69
2023-02-24T08:35:38.334Z,98112.25
2023-02-24T08:38:16.344Z,98106.63
2023-02-24T08:40:55.010Z,98099.91
2023-02-24T08:43:33.015Z,98090.06
2023-02-24T08:46:13.998Z,98083.97
2023-02-24T08:48:46.547Z,98079.09
2023-02-24T08:51:23.201Z,98083.50
2023-02-24T08:53:55.760Z,98084.16
2023-02-24T08:56:29.456Z,98075.59
2023-02-24T08:59:05.248Z,98071.75
2023-02-24T09:01:38.533Z,98063.72
2023-02-24T09:04:09.646Z,98050.31
2023-02-24T09:06:44.978Z,98043.44
2023-02-24T09:09:17.738Z,98042.63
2023-02-24T09:11:46.876Z,98044.78
2023-02-24T09:14:27.002Z,98034.16
2023-02-24T09:17:06.627Z,98031.28
2023-02-24T09:19:51.636Z,98027.91
2023-02-24T09:22:32.362Z,98024.84
2023-02-24T09:25:24.240Z,98013.38
2023-02-24T09:28:18.499Z,97998.31
2023-02-24T09:30:55.902Z,98000.59
2023-02-24T09:33:39.289Z,97985.63
2023-02-24T09:36:12.928Z,97983.94
2023-02-24T09:39:00.292Z,97991.47
2023-02-24T09:42:18.378Z,97974.91
2023-02-24T09:44:52.878Z,97971.41
2023-02-24T09:47:40.141Z,97965.19
2023-02-24T09:50:51.280Z,97956.13
2023-02-24T09:53:20.884Z,97952.13
2023-02-24T09:56:03.990Z,97946.81
2023-02-24T09:58:49.316Z,97931.97
2023-02-24T10:01:31.222Z,97939.53
2023-02-24T10:04:18.529Z,97935.44
2023-02-24T10:07:03.095Z,97938.75
2023-02-24T10:09:44.097Z,97936.69
2023-02-24T10:12:17.346Z,97928.44
2023-02-24T10:14:53.846Z,97919.34
2023-02-24T10:17:23.754Z,97921.22
2023-02-24T10:19:59.923Z,97911.72
2023-02-24T10:22:55.252Z,97902.34
2023-02-24T10:25:43.077Z,97897.94
2023-02-24T10:28:23.153Z,97893.97
2023-02-24T10:30:49.840Z,97892.69
2023-02-24T10:33:28.086Z,97889.09
2023-02-24T10:36:11.009Z,97890.91
2023-02-24T10:38:41.021Z,97882.91
2023-02-24T10:41:10.220Z,97880.19
2023-02-24T10:43:45.646Z,97884.16
2023-02-24T10:46:42.089Z,97876.94
2023-02-24T10:49:16.496Z,97892.22
2023-02-24T10:51:51.425Z,97869.31
2023-02-24T10:54:33.158Z,97882.22
2023-02-24T10:57:18.895Z,97867.97
2023-02-24T11:00:16.661Z,97858.13
2023-02-24T11:03:10.081Z,97860.41
2023-02-24T11:05:56.687Z,97848.72
2023-02-24T11:08:36.901Z,97850.69
2023-02-24T11:11:29.830Z,97837.03
2023-02-24T11:14:18.345Z,97827.91
2023-02-24T11:17:09.992Z,97833.38
2023-02-24T11:19:47.882Z,97822.50
2023-02-24T11:22:20.360Z,97809.94
2023-02-24T11:24:48.192Z,97801.75
2023-02-24T11:27:18.542Z,97812.28
2023-02-24T11:30:25.654Z,97794.38
2023-02-24T11:33:13.681Z,97789.34
2023-02-24T11:36:20.595Z,97788.59
2023-02-24T11:39:22.710Z,97771.97
2023-02-24T11:41:58.517Z,97774.56
2023-02-24T11:44:39.686Z,97763.69
2023-02-24T11:47:13.263Z,97771.84
2023-02-24T11:49:45.411Z,97760.66
2023-02-24T11:52:18.012Z,97755.69
2023-02-24T11:54:50.624Z,97762.72
2023-02-24T11:57:22.969Z,97746.25
2023-02-24T12:00:01.679Z,97744.31
2023-02-24T12:02:47.174Z,97738.75
2023-02-24T12:05:18.787Z,97738.31
2023-02-24T12:07:54.680Z,97726.53
2023-02-24T12:10:45.089Z,97725.16
2023-02-24T12:13:11.905Z,97723.47
2023-02-24T12:15:48.792Z,97713.59
2023-02-24T12:18:24.596Z,97705.72
2023-02-24T12:20:57.146Z,97704.59
2023-02-24T12:23:37.549Z,97703.63
2023-02-24T12:26:28.970Z,97702.09
2023-02-24T12:29:32.758Z,97707.63
2023-02-24T12:32:16.055Z,97710.63
2023-02-24T12:35:10.381Z,97695.53
2023-02-24T12:37:47.327Z,97695.81
2023-02-24T12:40:13.934Z,97693.91
2023-02-24T12:42:48.670Z,97685.00
2023-02-24T12:45:53.717Z,97695.75
2023-02-24T12:48:46.327Z,97691.59
2023-02-24T12:51:50.593Z,97688.56
2023-02-24T12:54:27.904Z,97680.56
2023-02-24T12:57:29.988Z,97686.38
2023-02-24T13:00:02.586Z,97686.34
2023-02-24T13:02:53.892Z,97677.72
2023-02-24T13:05:44.776Z,97682.00
2023-02-24T13:08:28.728Z,97684.25
2023-02-24T13:11:05.349Z,97686.56
2023-02-24T13:13:46.474Z,97680.03
2023-02-24T13:16:13.334Z,97673.53
2023-02-24T13:18:40.339Z,97680.75
2023-02-24T13:21:14.854Z,97672.03
2023-02-24T13:23:51.771Z,97672.88
2023-02-24T13:26:24.251Z,97682.50
2023-02-24T13:29:17.337Z,97679.78
2023-02-24T13:31:52.346Z,97678.53
2023-02-24T13:34:22.046Z,97693.09
2023-02-24T13:36:50.654Z,97676.19
2023-02-24T13:39:27.229Z,97688.81
2023-02-24T13:42:30.094Z,97685.94
2023-02-24T13:44:59.777Z,97683.78
2023-02-24T13:48:00.237Z,97679.84
2023-02-24T13:51:06.337Z,97679.75
2023-02-24T13:53:32.898Z,97684.25
2023-02-24T13:56:21.390Z,97678.06
2023-02-24T13:59:17.110Z,97671.59
2023-02-24T14:02:00.722Z,97677.78
2023-02-24T14:04:32.865Z,97676.13
2023-02-24T14:07:03.392Z,97675.16
2023-02-24T14:09:56.773Z,97668.44
2023-02-24T14:12:35.389Z,97665.13
2023-02-24T14:15:04.293Z,97656.56
2023-02-24T14:17:36.998Z,97657.00
2023-02-24T14:20:09.808Z,97655.72
2023-02-24T14:22:54.061Z,97653.81
2023-02-24T14:25:23.399Z,97650.03
2023-02-24T14:27:51.441Z,97647.25
2023-02-24T14:30:45.288Z,97644.50
2023-02-24T14:33:33.865Z,97638.97
2023-02-24T14:36:02.004Z,97631.69
2023-02-24T14:38:36.813Z,97635.16
2023-02-24T14:41:07.415Z,97619.34
2023-02-24T14:43:41.924Z,97618.94
2023-02-24T14:46:09.084Z,97618.56
2023-02-24T14:48:36.398Z,97613.88
2023-02-24T14:51:10.806Z,97612.78
2023-02-24T14:53:50.694Z,97616.78
2023-02-24T14:56:19.626Z,97609.16
2023-02-24T14:58:52.291Z,97608.63
2023-02-24T15:01:34.029Z,97608.09
2023-02-24T15:04:12.215Z,97597.34
2023-02-24T15:06:43.024Z,97594.03
2023-02-24T15:09:21.137Z,97596.16
2023-02-24T15:11:49.400Z,97581.22
2023-02-24T15:14:24.737Z,97582.03
2023-02-24T15:16:55.066Z,97576.94
2023-02-24T15:19:31.884Z,97571.81
2023-02-24T15:21:58.672Z,97582.59
2023-02-24T15:24:27.216Z,97573.31
2023-02-24T15:27:02.629Z,97568.59
2023-02-24T15:29:31.319Z,97574.63
2023-02-24T15:32:00.373Z,97562.91
2023-02-24T15:34:34.972Z,97558.66
2023-02-24T15:37:12.634Z,97553.84
2023-02-24T15:39:42.779Z,97550.22
2023-02-24T15:42:17.133Z,97546.69
2023-02-24T15:44:58.416Z,97552.16
2023-02-24T15:47:28.832Z,97548.22
2023-02-24T15:49:55.662Z,97545.88
2023-02-24T15:52:25.776Z,97532.66
2023-02-24T15:54:52.889Z,97545.31
2023-02-24T15:57:20.627Z,97533.38
2023-02-24T15:59:47.365Z,97527.38
2023-02-24T16:02:18.334Z,97533.75
2023-02-24T16:04:45.052Z,97519.19
2023-02-24T16:07:17.797Z,97522.31
2023-02-24T16:09:45.906Z,97525.53
2023-02-24T16:12:17.200Z,97518.75
2023-02-24T16:14:46.772Z,97515.03
2023-02-24T16:17:30.821Z,97516.47
2023-02-24T16:19:57.816Z,97514.13
2023-02-24T16:22:25.187Z,97513.94
2023-02-24T16:24:52.560Z,97510.94
2023-02-24T16:27:29.585Z,97512.25
2023-02-24T16:29:58.090Z,97514.63
2023-02-24T16:32:27.142Z,97509.50
2023-02-24T16:34:54.147Z,97508.19
2023-02-24T16:37:27.406Z,97509.75
2023-02-24T16:39:54.865Z,97516.78
2023-02-24T16:42:22.073Z,97513.53
2023-02-24T16:44:49.521Z,97526.75
2023-02-24T16:47:25.566Z,97517.97
2023-02-24T16:49:56.292Z,97520.69
2023-02-24T16:52:24.828Z,97521.28
2023-02-24T16:54:51.600Z,97525.31
2023-02-24T16:57:18.265Z,97522.13
2023-02-24T16:59:44.956Z,97521.19
2023-02-24T17:02:22.505Z,97525.91
2023-02-24T17:04:49.193Z,97523.19
2023-02-24T17:07:16.280Z,97522.75
2023-02-24T17:09:43.091Z,97522.06
2023-02-24T17:12:13.026Z,97512.47
2023-02-24T17:14:39.794Z,97517.94
2023-02-24T17:17:06.649Z,97516.41
2023-02-24T17:19:33.433Z,97514.09
2023-02-24T17:22:00.117Z,97510.28
2023-02-24T17:24:28.551Z,97504.63
2023-02-24T17:26:58.763Z,97506.34
2023-02-24T17:29:25.566Z,97504.69
2023-02-24T17:31:52.465Z,97501.97
2023-02-24T17:34:21.496Z,97491.31
2023-02-24T17:36:48.332Z,97495.34
2023-02-24T17:39:15.073Z,97497.06
2023-02-24T17:41:41.804Z,97500.28
2023-02-24T17:44:08.426Z,97499.91
2023-02-24T17:46:35.151Z,97487.03
2023-02-24T17:49:05.050Z,97481.91
2023-02-24T17:51:32.071Z,97477.13
2023-02-24T17:53:58.837Z,97481.59
2023-02-24T17:56:25.582Z,97476.06
2023-02-24T17:58:55.462Z,97479.84
2023-02-24T18:01:22.244Z,97471.28
2023-02-24T18:03:48.908Z,97463.94
2023-02-24T18:06:15.713Z,97463.09
2023-02-24T18:08:42.425Z,97448.72
2023-02-24T18:11:14.560Z,97444.19
2023-02-24T18:13:41.260Z,97448.28
2023-02-24T18:16:10.476Z,97439.03
2023-02-24T18:18:37.602Z,97439.88
2023-02-24T18:21:05.453Z,97436.75
2023-02-24T18:23:33.360Z,97433.56
2023-02-24T18:26:05.367Z,97423.13
2023-02-24T18:28:33.015Z,97428.13
2023-02-24T18:31:03.456Z,97434.78
2023-02-24T18:33:30.492Z,97432.63
2023-02-24T18:36:00.942Z,97429.34
2023-02-24T18:38:28.662Z,97433.50
2023-02-24T18:41:03.334Z,97436.84
2023-02-24T18:43:31.203Z,97437.88
2023-02-24T18:46:02.697Z,97436.09
2023-02-24T18:48:33.967Z,97434.78
2023-02-24T18:51:01.301Z,97442.63
2023-02-24T18:53:30.967Z,97438.13
2023-02-24T18:56:02.728Z,97431.44
2023-02-24T18:58:29.973Z,97427.69
2023-02-24T19:00:57.105Z,97436.09
2023-02-24T19:03:24.355Z,97423.88
2023-02-24T19:05:51.061Z,97412.00
2023-02-24T19:08:18.060Z,97418.44
2023-02-24T19:10:45.021Z,97414.03
2023-02-24T19:13:12.077Z,97409.50
2023-02-24T19:15:39.448Z,97404.53
2023-02-24T19:18:06.431Z,97402.97
2023-02-24T19:20:33.204Z,97408.44
2023-02-24T19:23:01.393Z,97406.31
2023-02-24T19:25:28.117Z,97397.53
2023-02-24T19:27:54.819Z,97411.28
2023-02-24T19:30:21.565Z,97415.56
2023-02-24T19:32:49.611Z,97414.38
2023-02-24T19:35:16.656Z,97418.56
2023-02-24T19:37:43.528Z,97417.75
2023-02-24T19:40:11.095Z,97414.66
2023-02-24T19:42:37.742Z,97406.50
2023-02-24T19:45:04.835Z,97415.03
2023-02-24T19:47:31.465Z,97410.63
2023-02-24T19:49:58.234Z,97405.03
2023-02-24T19:52:25.055Z,97406.59
2023-02-24T19:54:51.830Z,97397.91
2023-02-24T19:57:18.488Z,97395.19
2023-02-24T19:59:45.139Z,97387.09
2023-02-24T20:02:11.919Z,97400.16
2023-02-24T20:04:41.586Z,97386.88
2023-02-24T20:07:08.316Z,97392.81
2023-02-24T20:09:34.905Z,97391.84
2023-02-24T20:12:02.376Z,97389.13
2023-02-24T20:14:29.877Z,97377.00
2023-02-24T20:16:56.625Z,97384.00
2023-02-24T20:19:23.418Z,97389.97
2023-02-24T20:21:50.249Z,97379.50
2023-02-24T20:24:18.384Z,97387.69
2023-02-24T20:26:47.763Z,97383.06
2023-02-24T20:29:14.583Z,97383.91
2023-02-24T20:31:41.621Z,97384.13
2023-02-24T20:34:10.529Z,97393.53
2023-02-24T20:36:37.482Z,97394.00
2023-02-24T20:39:06.685Z,97394.81
2023-02-24T20:41:34.117Z,97389.50
2023-02-24T20:44:00.752Z,97387.09
2023-02-24T20:46:32.347Z,97387.81
2023-02-24T20:49:02.220Z,97390.91
2023-02-24T20:51:30.509Z,97383.53
2023-02-24T20:53:58.587Z,97388.97
2023-02-24T20:56:33.063Z,97385.41
2023-02-24T20:59:06.127Z,97383.75
2023-02-24T21:01:34.052Z,97392.22
2023-02-24T21:04:01.302Z,97386.25
2023-02-24T21:06:28.793Z,97394.00
2023-02-24T21:08:56.609Z,97391.84
2023-02-24T21:11:23.675Z,97392.81
2023-02-24T21:13:52.372Z,97405.88
2023-02-24T21:16:20.937Z,97392.81
2023-02-24T21:18:49.478Z,97401.25
2023-02-24T21:21:17.424Z,97390.81
2023-02-24T21:23:44.576Z,97398.75
2023-02-24T21:26:12.412Z,97384.84
2023-02-24T21:28:40.271Z,97391.63
2023-02-24T21:31:12.212Z,97389.25
2023-02-24T21:33:39.506Z,97397.09
2023-02-24T21:36:12.016Z,97396.13
2023-02-24T21:38:38.683Z,97395.78
2023-02-24T21:41:07.762Z,97390.91
2023-02-24T21:43:35.097Z,97397.81
2023-02-24T21:46:09.429Z,97395.66
2023-02-24T21:48:37.144Z,97394.94
2023-02-24T21:51:06.332Z,97389.50
2023-02-24T21:53:35.635Z,97388.78
2023-02-24T21:56:16.240Z,97396.63
2023-02-24T21:58:53.656Z,97392.81
2023-02-24T22:01:26.955Z,97402.22
2023-02-24T22:03:55.801Z,97396.03
2023-02-24T22:06:23.703Z,97400.66
2023-02-24T22:08:50.516Z,97396.03
2023-02-24T22:11:18.646Z,97398.41
2023-02-24T22:13:46.360Z,97391.16
2023-02-24T22:16:23.188Z,97391.16
2023-02-24T22:18:51.790Z,97401.84
2023-02-24T22:21:25.482Z,97403.41
2023-02-24T22:23:54.304Z,97406.13
2023-02-24T22:26:23.999Z,97401.84
2023-02-24T22:28:51.797Z,97394.47
2023-02-24T22:31:20.998Z,97398.97
2023-02-24T22:33:48.937Z,97404.44
2023-02-24T22:36:19.742Z,97404.66
2023-02-24T22:38:47.363Z,97405.13
2023-02-24T22:41:20.040Z,97412.28
2023-02-24T22:43:47.263Z,97414.06
2023-02-24T22:46:16.816Z,97421.06
2023-02-24T22:48:43.868Z,97437.59
2023-02-24T22:51:13.757Z,97438.66
2023-02-24T22:53:42.901Z,97434.03
2023-02-24T22:56:12.155Z,97430.06
2023-02-24T22:58:39.026Z,97432.22
2023-02-24T23:01:16.072Z,97432.94
2023-02-24T23:03:43.711Z,97429.59
2023-02-24T23:06:16.207Z,97420.22
2023-02-24T23:08:45.901Z,97414.16
2023-02-24T23:11:18.871Z,97433.31
2023-02-24T23:13:47.892Z,97423.78
2023-02-24T23:16:18.620Z,97422.97
2023-02-24T23:18:50.825Z,97428.91
2023-02-24T23:21:22.644Z,97431.53
2023-02-24T23:23:53.484Z,97428.66
2023-02-24T23:26:20.543Z,97423.78
2023-02-24T23:28:47.364Z,97433.19
2023-02-24T23:31:20.059Z,97434.63
2023-02-24T23:33:46.968Z,97437.03
2023-02-24T23:36:13.670Z,97431.06
2023-02-24T23:38:40.272Z,97425.00
2023-02-24T23:41:09.253Z,97420.59
2023-02-24T23:43:36.282Z,97432.75
2023-02-24T23:46:04.720Z,97427.72
2023-02-24T23:48:32.040Z,97421.56
2023-02-24T23:50:58.812Z,97429.41
2023-02-24T23:53:25.872Z,97432.75
2023-02-24T23:55:53.406Z,97426.44
2023-02-24T23:58:20.387Z,97431.66
